Time;durP1;ratioP1;P1;durP2;ratioP2;P2;SDS_P1;SDS_P2;PMS_P1;PMS_P2;Temp;Humidity;BMP_temperature;BMP_pressure;BME280_temperature;BME280_humidity;BME280_pressure;Samples;Min_cycle;Max_cycle;Signal;HPM_P1;HPM_P2
2023/03/27 00:04:35;;;;;;;1.88;1.60;;;;;;;;;;10450301;28;20040;-48
2023/03/27 00:09:36;;;;;;;2.25;1.73;;;;;;;;;;10449716;28;20381;-50
2023/03/27 00:14:36;;;;;;;1.38;1.27;;;;;;;;;;10448198;28;20455;-51
2023/03/27 00:19:37;;;;;;;1.98;1.48;;;;;;;;;;10450415;28;20412;-49
2023/03/27 00:24:38;;;;;;;2.85;1.67;;;;;;;;;;10449083;28;20040;-52
2023/03/27 00:29:38;;;;;;;3.05;1.60;;;;;;;;;;10449447;28;20029;-53
2023/03/27 00:34:39;;;;;;;2.05;1.65;;;;;;;;;;10449068;28;20025;-49
2023/03/27 00:39:40;;;;;;;1.65;1.50;;;;;;;;;;10441203;28;20555;-51
2023/03/27 00:44:41;;;;;;;1.90;1.42;;;;;;;;;;10452088;28;20025;-51
2023/03/27 00:49:42;;;;;;;1.65;1.55;;;;;;;;;;10456355;28;20029;-54
2023/03/27 00:54:45;;;;;;;2.22;1.48;;;;;;;;;;10446219;28;20390;-50
2023/03/27 00:59:49;;;;;;;3.47;1.60;;;;;;;;;;10467210;28;20133;-51
2023/03/27 01:04:50;;;;;;;1.77;1.60;;;;;;;;;;10455241;28;20485;-52
2023/03/27 01:09:51;;;;;;;3.30;1.70;;;;;;;;;;10454558;28;20025;-53
2023/03/27 01:15:09;;;;;;;2.65;1.52;;;;;;;;;;10467952;28;20028;-53
2023/03/27 01:20:55;;;;;;;1.70;1.40;;;;;;;;;;10456494;28;20411;-53
2023/03/27 01:26:28;;;;;;;2.17;1.70;;;;;;;;;;10417949;28;20155;-48
2023/03/27 01:31:59;;;;;;;6.82;1.35;;;;;;;;;;10454564;28;20033;-53
2023/03/27 01:37:29;;;;;;;1.90;1.50;;;;;;;;;;10453403;28;20161;-49
2023/03/27 01:43:00;;;;;;;1.88;1.60;;;;;;;;;;10427737;28;20033;-49
2023/03/27 01:48:15;;;;;;;2.15;1.60;;;;;;;;;;10454932;28;20033;-50
2023/03/27 01:53:27;;;;;;;1.60;1.50;;;;;;;;;;10455009;28;20053;-49
2023/03/27 01:58:39;;;;;;;1.85;1.38;;;;;;;;;;10437201;28;20025;-50
2023/03/27 02:03:45;;;;;;;2.08;1.38;;;;;;;;;;10454075;28;20485;-53
2023/03/27 02:08:59;;;;;;;1.30;1.20;;;;;;;;;;10454039;28;20033;-51
2023/03/27 02:14:05;;;;;;;2.97;1.40;;;;;;;;;;10435662;28;20029;-50
2023/03/27 02:19:13;;;;;;;1.45;1.35;;;;;;;;;;10435928;28;20519;-49
2023/03/27 02:24:18;;;;;;;1.65;1.50;;;;;;;;;;10435911;28;20029;-50
2023/03/27 02:29:51;;;;;;;3.08;1.38;;;;;;;;;;10452730;28;20035;-51
2023/03/27 02:35:07;;;;;;;1.55;1.45;;;;;;;;;;10448837;28;20045;-50
2023/03/27 02:40:22;;;;;;;1.60;1.50;;;;;;;;;;10450034;28;20094;-51
2023/03/27 02:45:30;;;;;;;1.20;1.10;;;;;;;;;;10460424;28;20031;-50
2023/03/27 02:50:47;;;;;;;2.03;1.42;;;;;;;;;;10445281;28;20095;-53
2023/03/27 02:55:53;;;;;;;1.20;1.10;;;;;;;;;;10416792;28;20045;-52
2023/03/27 03:00:54;;;;;;;1.65;1.50;;;;;;;;;;10438237;28;20052;-51
2023/03/27 03:05:56;;;;;;;1.52;1.42;;;;;;;;;;10451530;28;20029;-54
2023/03/27 03:11:05;;;;;;;1.90;1.30;;;;;;;;;;10431794;28;20028;-56
2023/03/27 03:16:08;;;;;;;1.77;1.52;;;;;;;;;;10438662;28;20448;-54
2023/03/27 03:21:09;;;;;;;1.88;1.50;;;;;;;;;;10437853;28;20025;-52
2023/03/27 03:26:11;;;;;;;1.30;1.20;;;;;;;;;;10436805;28;20067;-52
2023/03/27 03:31:12;;;;;;;1.77;1.50;;;;;;;;;;10428545;28;20121;-69
2023/03/27 03:36:13;;;;;;;1.60;1.50;;;;;;;;;;10425568;28;20021;-69
2023/03/27 03:41:14;;;;;;;1.30;1.20;;;;;;;;;;10445051;28;20072;-65
2023/03/27 03:46:14;;;;;;;2.53;1.50;;;;;;;;;;10433438;28;20042;-69
2023/03/27 03:51:15;;;;;;;1.63;1.50;;;;;;;;;;10420899;28;20102;-70
2023/03/27 03:56:16;;;;;;;0.90;0.90;;;;;;;;;;10451363;28;20035;-69
2023/03/27 04:01:19;;;;;;;1.63;1.40;;;;;;;;;;10448435;28;20032;-70
2023/03/27 04:06:20;;;;;;;1.13;1.10;;;;;;;;;;10448891;28;20151;-70
2023/03/27 04:11:20;;;;;;;3.25;1.30;;;;;;;;;;10439711;28;20025;-68
2023/03/27 04:16:21;;;;;;;1.73;1.30;;;;;;;;;;10431927;28;20039;-49
2023/03/27 04:21:25;;;;;;;1.20;1.10;;;;;;;;;;10453173;28;20102;-51
2023/03/27 04:26:26;;;;;;;1.60;1.30;;;;;;;;;;10449822;28;20020;-48
2023/03/27 04:31:29;;;;;;;1.83;1.20;;;;;;;;;;10457359;28;20029;-48
2023/03/27 04:36:29;;;;;;;1.35;1.25;;;;;;;;;;10457893;28;20418;-49
2023/03/27 04:41:31;;;;;;;1.40;1.30;;;;;;;;;;10456940;28;20021;-49
2023/03/27 04:46:32;;;;;;;1.30;1.20;;;;;;;;;;10464066;28;20057;-48
2023/03/27 04:51:33;;;;;;;1.30;1.20;;;;;;;;;;10454356;28;20032;-51
2023/03/27 04:56:36;;;;;;;1.30;1.20;;;;;;;;;;10441367;28;20555;-49
2023/03/27 05:01:37;;;;;;;1.27;1.17;;;;;;;;;;10442289;28;20024;-50
2023/03/27 05:06:39;;;;;;;2.08;1.27;;;;;;;;;;10437356;28;20021;-50
2023/03/27 05:11:40;;;;;;;1.52;1.15;;;;;;;;;;10448183;28;20037;-50
2023/03/27 05:16:41;;;;;;;1.77;1.10;;;;;;;;;;10453390;28;20032;-49
2023/03/27 05:21:42;;;;;;;1.73;1.50;;;;;;;;;;10450939;28;20104;-48
2023/03/27 05:26:42;;;;;;;1.45;1.10;;;;;;;;;;10451297;28;20035;-49
2023/03/27 05:31:43;;;;;;;10.00;1.45;;;;;;;;;;10451651;28;20051;-54
2023/03/27 05:36:45;;;;;;;1.40;1.20;;;;;;;;;;10452902;28;20020;-56
2023/03/27 05:41:46;;;;;;;1.77;1.40;;;;;;;;;;10445655;28;20476;-56
2023/03/27 05:46:47;;;;;;;1.90;1.50;;;;;;;;;;10465751;28;20553;-51
2023/03/27 05:51:48;;;;;;;2.92;1.58;;;;;;;;;;10451713;28;20097;-55
2023/03/27 05:56:49;;;;;;;3.95;1.27;;;;;;;;;;10453312;28;20021;-54
2023/03/27 06:01:49;;;;;;;2.33;1.50;;;;;;;;;;10449059;28;20020;-55
2023/03/27 06:06:50;;;;;;;13.70;3.20;;;;;;;;;;10448970;28;20414;-55
2023/03/27 06:11:51;;;;;;;7.07;1.70;;;;;;;;;;10450562;28;20488;-55
2023/03/27 06:16:52;;;;;;;19.45;2.33;;;;;;;;;;10450242;28;20541;-57
2023/03/27 06:21:52;;;;;;;9.23;2.00;;;;;;;;;;10450186;28;20024;-57
2023/03/27 06:26:53;;;;;;;9.00;2.10;;;;;;;;;;10450876;28;20020;-57
2023/03/27 06:31:56;;;;;;;12.43;2.97;;;;;;;;;;10450977;28;20200;-56
2023/03/27 06:36:58;;;;;;;7.90;2.00;;;;;;;;;;10450808;28;20083;-55
2023/03/27 06:41:59;;;;;;;2.45;1.52;;;;;;;;;;10449649;28;20025;-55
2023/03/27 06:47:00;;;;;;;4.05;1.70;;;;;;;;;;10455913;28;20402;-55
2023/03/27 06:52:00;;;;;;;3.90;2.03;;;;;;;;;;10436293;28;20045;-55
2023/03/27 06:57:01;;;;;;;9.55;2.58;;;;;;;;;;10451440;28;20032;-55
2023/03/27 07:02:02;;;;;;;3.40;1.48;;;;;;;;;;10451226;28;20690;-50
2023/03/27 07:07:02;;;;;;;7.55;1.90;;;;;;;;;;10451070;28;20392;-54
2023/03/27 07:12:03;;;;;;;5.75;1.67;;;;;;;;;;10450548;28;20549;-58
2023/03/27 07:17:04;;;;;;;4.82;1.60;;;;;;;;;;10449994;28;20024;-53
2023/03/27 07:22:04;;;;;;;3.50;1.73;;;;;;;;;;10451041;28;20075;-57
2023/03/27 07:27:06;;;;;;;3.67;1.65;;;;;;;;;;10451557;28;20017;-56
2023/03/27 07:32:07;;;;;;;3.00;1.60;;;;;;;;;;10449565;28;20703;-63
2023/03/27 07:37:07;;;;;;;4.10;1.50;;;;;;;;;;10449271;28;20086;-59
2023/03/27 07:42:08;;;;;;;3.70;1.90;;;;;;;;;;10450439;28;20035;-55
2023/03/27 07:47:09;;;;;;;2.03;1.80;;;;;;;;;;10438158;28;20139;-54
2023/03/27 07:52:09;;;;;;;4.18;1.80;;;;;;;;;;10436477;28;20409;-53
2023/03/27 07:57:12;;;;;;;4.20;1.52;;;;;;;;;;10411943;28;20060;-53
2023/03/27 08:02:13;;;;;;;4.03;1.80;;;;;;;;;;10449152;28;20032;-55
2023/03/27 08:07:13;;;;;;;2.15;1.95;;;;;;;;;;10450317;28;20032;-71
2023/03/27 08:12:14;;;;;;;3.30;1.80;;;;;;;;;;10418347;28;20087;-55
2023/03/27 08:17:15;;;;;;;3.03;1.50;;;;;;;;;;10428179;28;20301;-54
2023/03/27 08:22:15;;;;;;;2.10;1.67;;;;;;;;;;10421232;28;20029;-56
2023/03/27 08:27:17;;;;;;;2.10;1.63;;;;;;;;;;10449205;28;20033;-55
2023/03/27 08:32:17;;;;;;;2.88;1.58;;;;;;;;;;10448397;28;20032;-54
2023/03/27 08:37:18;;;;;;;5.35;2.15;;;;;;;;;;10418008;28;20040;-54
2023/03/27 08:42:23;;;;;;;2.22;1.50;;;;;;;;;;10442643;28;20026;-56
2023/03/27 08:47:35;;;;;;;2.50;1.77;;;;;;;;;;10426870;28;20028;-53
2023/03/27 08:52:37;;;;;;;2.13;1.58;;;;;;;;;;10446701;28;20621;-54
2023/03/27 08:57:37;;;;;;;3.90;1.83;;;;;;;;;;10423126;28;20036;-60
2023/03/27 09:03:09;;;;;;;3.03;1.98;;;;;;;;;;10437629;28;20029;-53
2023/03/27 09:08:28;;;;;;;1.92;1.60;;;;;;;;;;10405828;28;20425;-54
2023/03/27 09:13:48;;;;;;;4.47;2.03;;;;;;;;;;10432664;28;20381;-55
2023/03/27 09:19:17;;;;;;;2.50;1.83;;;;;;;;;;10434119;28;20184;-53
2023/03/27 09:24:45;;;;;;;3.55;2.00;;;;;;;;;;10438970;28;20031;-53
2023/03/27 09:30:13;;;;;;;3.17;1.80;;;;;;;;;;10428416;28;20028;-56
2023/03/27 09:35:16;;;;;;;;;;;;;;;;;;10444412;28;20024;-54
2023/03/27 09:41:22;;;;;;;2.38;1.80;;;;;;;;;;10455339;28;19916;-55
2023/03/27 09:46:25;;;;;;;3.40;2.00;;;;;;;;;;10323868;28;20038;-56
2023/03/27 09:51:41;;;;;;;2.80;1.90;;;;;;;;;;10323662;28;20034;-55
2023/03/27 09:57:09;;;;;;;1.77;1.65;;;;;;;;;;10315938;28;20039;-54
2023/03/27 10:02:22;;;;;;;2.67;1.60;;;;;;;;;;10322223;28;20553;-54
2023/03/27 10:07:24;;;;;;;1.75;1.40;;;;;;;;;;10299429;28;20042;-53
2023/03/27 10:12:26;;;;;;;2.22;1.80;;;;;;;;;;10330304;28;20037;-50
2023/03/27 10:17:38;;;;;;;2.47;1.90;;;;;;;;;;10429807;28;20485;-56
2023/03/27 10:22:54;;;;;;;1.60;1.50;;;;;;;;;;10435569;28;20487;-55
2023/03/27 10:28:27;;;;;;;1.75;1.45;;;;;;;;;;10440339;28;20039;-55
2023/03/27 10:33:38;;;;;;;1.42;1.30;;;;;;;;;;10453600;28;20025;-54
2023/03/27 10:38:40;;;;;;;2.75;1.60;;;;;;;;;;10451324;28;20067;-55
2023/03/27 10:43:44;;;;;;;2.25;1.75;;;;;;;;;;10440468;28;20082;-54
2023/03/27 10:49:03;;;;;;;1.77;1.65;;;;;;;;;;10456241;28;20431;-54
2023/03/27 10:54:33;;;;;;;3.25;1.50;;;;;;;;;;10424190;28;20045;-54
2023/03/27 10:59:52;;;;;;;2.92;1.60;;;;;;;;;;10427267;28;20026;-53
2023/03/27 11:05:13;;;;;;;1.90;1.67;;;;;;;;;;10422573;28;20024;-55
2023/03/27 11:10:22;;;;;;;1.38;1.27;;;;;;;;;;10422440;28;20032;-63
2023/03/27 11:15:37;;;;;;;1.67;1.38;;;;;;;;;;10437972;28;20048;-66
2023/03/27 11:20:50;;;;;;;1.50;1.40;;;;;;;;;;10407392;28;20051;-55
2023/03/27 11:25:52;;;;;;;1.60;1.50;;;;;;;;;;10421093;28;20350;-60
2023/03/27 11:31:04;;;;;;;1.63;1.50;;;;;;;;;;10418107;28;20032;-53
2023/03/27 11:36:29;;;;;;;3.75;1.58;;;;;;;;;;10413895;28;20051;-54
2023/03/27 11:41:30;;;;;;;2.35;1.70;;;;;;;;;;10448289;28;20029;-52
2023/03/27 11:46:46;;;;;;;2.97;1.75;;;;;;;;;;10452437;28;20029;-55
2023/03/27 11:52:10;;;;;;;3.88;2.28;;;;;;;;;;10428084;28;20041;-54
2023/03/27 11:57:23;;;;;;;2.00;1.77;;;;;;;;;;10411252;28;20040;-55
2023/03/27 12:03:00;;;;;;;2.53;1.70;;;;;;;;;;10435826;28;20025;-53
2023/03/27 12:08:20;;;;;;;2.15;1.70;;;;;;;;;;10447859;28;20377;-59
2023/03/27 12:13:33;;;;;;;2.63;1.73;;;;;;;;;;10442646;28;20156;-54
2023/03/27 12:19:18;;;;;;;5.95;1.73;;;;;;;;;;10448436;28;20036;-55
2023/03/27 12:24:37;;;;;;;2.80;1.50;;;;;;;;;;10436474;28;20033;-56
2023/03/27 12:29:53;;;;;;;1.35;1.25;;;;;;;;;;10436542;28;20029;-58
2023/03/27 12:34:58;;;;;;;2.53;1.73;;;;;;;;;;10435814;28;20119;-54
2023/03/27 12:40:00;;;;;;;2.47;1.70;;;;;;;;;;10439039;28;20048;-55
2023/03/27 12:45:23;;;;;;;2.10;1.40;;;;;;;;;;10441094;28;20392;-56
2023/03/27 12:50:30;;;;;;;2.03;1.48;;;;;;;;;;10448813;28;20385;-56
2023/03/27 12:55:35;;;;;;;3.28;1.40;;;;;;;;;;10438523;28;20037;-56
2023/03/27 13:00:36;;;;;;;5.43;1.40;;;;;;;;;;10433707;28;20052;-57
2023/03/27 13:06:44;;;;;;;4.70;1.38;;;;;;;;;;10419072;28;20119;-52
2023/03/27 13:11:56;;;;;;;;;;;;;;;;;;10426941;28;20042;-54
2023/03/27 13:17:32;;;;;;;2.63;1.30;;;;;;;;;;10434449;28;19912;-55
2023/03/27 13:23:17;;;;;;;3.55;1.23;;;;;;;;;;10417110;28;20474;-55
2023/03/27 13:28:33;;;;;;;1.73;1.42;;;;;;;;;;10453331;28;20288;-55
2023/03/27 13:33:34;;;;;;;2.15;1.20;;;;;;;;;;10436761;28;20033;-54
2023/03/27 13:38:52;;;;;;;1.25;1.15;;;;;;;;;;10443267;28;20040;-55
2023/03/27 13:43:54;;;;;;;1.95;1.27;;;;;;;;;;10452660;28;20041;-53
2023/03/27 13:49:09;;;;;;;3.40;1.33;;;;;;;;;;10410735;28;20032;-52
2023/03/27 13:54:21;;;;;;;6.18;1.17;;;;;;;;;;10453796;28;20041;-53
2023/03/27 13:59:42;;;;;;;2.72;1.40;;;;;;;;;;10439820;28;20376;-56
2023/03/27 14:05:08;;;;;;;2.25;1.20;;;;;;;;;;10446229;28;20466;-53
2023/03/27 14:10:24;;;;;;;1.65;1.20;;;;;;;;;;10409407;28;20027;-54
2023/03/27 14:15:49;;;;;;;2.15;1.20;;;;;;;;;;10422294;28;20359;-54
2023/03/27 14:20:57;;;;;;;2.70;1.30;;;;;;;;;;10453234;28;20025;-64
2023/03/27 14:26:11;;;;;;;1.30;1.10;;;;;;;;;;10441599;28;20029;-54
2023/03/27 14:31:17;;;;;;;1.20;0.98;;;;;;;;;;10438353;28;20017;-53
2023/03/27 14:36:27;;;;;;;0.98;0.80;;;;;;;;;;10422841;28;20025;-52
2023/03/27 14:41:28;;;;;;;1.88;1.10;;;;;;;;;;10451893;28;20033;-55
2023/03/27 14:46:29;;;;;;;0.90;0.90;;;;;;;;;;10456137;28;20117;-55
2023/03/27 14:51:46;;;;;;;1.30;1.00;;;;;;;;;;10438114;23;20108;-56
2023/03/27 14:56:50;;;;;;;0.95;0.90;;;;;;;;;;10394869;28;20120;-57
2023/03/27 15:01:55;;;;;;;2.50;0.88;;;;;;;;;;10378752;28;20117;-58
2023/03/27 15:07:17;;;;;;;0.88;0.85;;;;;;;;;;10370373;28;20248;-54
2023/03/27 15:12:22;;;;;;;1.65;0.95;;;;;;;;;;10373636;28;20103;-57
2023/03/27 15:17:23;;;;;;;0.90;0.90;;;;;;;;;;10369777;28;20419;-57
2023/03/27 15:22:34;;;;;;;1.40;0.80;;;;;;;;;;10375939;28;20049;-57
2023/03/27 15:27:41;;;;;;;1.15;0.82;;;;;;;;;;10356048;28;20434;-58
2023/03/27 15:32:49;;;;;;;1.30;0.90;;;;;;;;;;10372065;28;20025;-57
2023/03/27 15:37:49;;;;;;;3.45;0.90;;;;;;;;;;10351982;28;20026;-57
2023/03/27 15:42:50;;;;;;;0.90;0.77;;;;;;;;;;10368142;28;20045;-59
2023/03/27 15:48:16;;;;;;;0.82;0.80;;;;;;;;;;10398522;28;20075;-57
2023/03/27 15:53:44;;;;;;;1.33;1.08;;;;;;;;;;10384016;28;20050;-57
2023/03/27 15:59:03;;;;;;;1.63;0.90;;;;;;;;;;10391166;28;20077;-57
2023/03/27 16:04:30;;;;;;;3.40;0.80;;;;;;;;;;10378980;28;20038;-57
2023/03/27 16:10:01;;;;;;;0.77;0.77;;;;;;;;;;10353274;28;20470;-58
2023/03/27 16:15:01;;;;;;;0.70;0.70;;;;;;;;;;10359104;28;20025;-57
2023/03/27 16:20:12;;;;;;;1.58;0.98;;;;;;;;;;10379259;28;20076;-58
2023/03/27 16:25:12;;;;;;;0.70;0.70;;;;;;;;;;10406160;28;20025;-58
2023/03/27 16:30:31;;;;;;;0.70;0.70;;;;;;;;;;10397231;28;20021;-58
2023/03/27 16:35:32;;;;;;;1.85;0.85;;;;;;;;;;10357252;28;20417;-58
2023/03/27 16:40:33;;;;;;;1.65;0.70;;;;;;;;;;10376892;28;20108;-57
2023/03/27 16:45:34;;;;;;;1.83;0.80;;;;;;;;;;10385178;28;20059;-56
2023/03/27 16:50:35;;;;;;;1.40;0.52;;;;;;;;;;10386765;28;20079;-54
2023/03/27 16:55:35;;;;;;;1.25;0.80;;;;;;;;;;10389783;28;20383;-59
2023/03/27 17:00:36;;;;;;;0.88;0.80;;;;;;;;;;10393554;28;20029;-59
2023/03/27 17:05:37;;;;;;;1.10;0.65;;;;;;;;;;10370851;28;20037;-58
2023/03/27 17:10:37;;;;;;;1.13;0.82;;;;;;;;;;10377347;28;20025;-56
2023/03/27 17:15:39;;;;;;;0.77;0.77;;;;;;;;;;10385521;28;20354;-59
2023/03/27 17:20:40;;;;;;;0.52;0.52;;;;;;;;;;10392503;28;20374;-59
2023/03/27 17:25:43;;;;;;;0.73;0.73;;;;;;;;;;10378169;28;20022;-58
2023/03/27 17:30:44;;;;;;;0.70;0.70;;;;;;;;;;10370190;28;20037;-57
2023/03/27 17:35:45;;;;;;;3.50;0.70;;;;;;;;;;10368235;28;20037;-57
2023/03/27 17:40:45;;;;;;;0.70;0.70;;;;;;;;;;10359986;28;20518;-57
2023/03/27 17:45:46;;;;;;;2.20;0.80;;;;;;;;;;10370054;28;20026;-57
2023/03/27 17:50:47;;;;;;;2.97;0.93;;;;;;;;;;10375732;28;20385;-57
2023/03/27 17:55:50;;;;;;;0.70;0.70;;;;;;;;;;10374503;28;20072;-58
2023/03/27 18:00:52;;;;;;;5.15;0.70;;;;;;;;;;10369170;28;20449;-54
2023/03/27 18:05:53;;;;;;;1.10;0.60;;;;;;;;;;10375928;28;20030;-56
2023/03/27 18:10:53;;;;;;;8.93;1.50;;;;;;;;;;10369025;28;20391;-59
2023/03/27 18:15:55;;;;;;;21.35;2.85;;;;;;;;;;10372791;28;20034;-56
2023/03/27 18:20:56;;;;;;;10.25;1.38;;;;;;;;;;10374182;28;20026;-57
2023/03/27 18:25:56;;;;;;;4.15;1.25;;;;;;;;;;10374144;28;20516;-54
2023/03/27 18:31:03;;;;;;;12.10;1.30;;;;;;;;;;10379088;28;20385;-58
2023/03/27 18:36:10;;;;;;;3.40;1.23;;;;;;;;;;10387860;28;20057;-58
2023/03/27 18:41:10;;;;;;;5.75;1.10;;;;;;;;;;10381122;28;20037;-58
2023/03/27 18:46:15;;;;;;;6.25;1.17;;;;;;;;;;10397368;28;20056;-58
2023/03/27 18:51:17;;;;;;;3.28;1.10;;;;;;;;;;10395721;28;20060;-57
2023/03/27 18:56:18;;;;;;;5.65;1.30;;;;;;;;;;10401663;28;20044;-57
2023/03/27 19:01:18;;;;;;;3.72;1.30;;;;;;;;;;10379002;28;20025;-58
2023/03/27 19:06:19;;;;;;;7.03;1.58;;;;;;;;;;10370845;28;20378;-58
2023/03/27 19:11:20;;;;;;;3.60;1.35;;;;;;;;;;10363669;28;20645;-59
2023/03/27 19:16:20;;;;;;;8.38;1.20;;;;;;;;;;10368806;28;20037;-59
2023/03/27 19:21:21;;;;;;;8.05;1.02;;;;;;;;;;10374476;28;20025;-59
2023/03/27 19:26:21;;;;;;;3.65;1.10;;;;;;;;;;10377037;28;20065;-57
2023/03/27 19:31:22;;;;;;;3.20;1.02;;;;;;;;;;10385376;28;20030;-58
2023/03/27 19:36:26;;;;;;;9.10;1.30;;;;;;;;;;10372080;28;20021;-58
2023/03/27 19:41:26;;;;;;;6.25;1.17;;;;;;;;;;10371895;28;20037;-58
2023/03/27 19:46:27;;;;;;;3.45;1.52;;;;;;;;;;10390971;28;20021;-58
2023/03/27 19:51:28;;;;;;;10.75;1.65;;;;;;;;;;10371559;28;20054;-59
2023/03/27 19:56:29;;;;;;;8.45;1.50;;;;;;;;;;10373714;28;20038;-59
2023/03/27 20:01:30;;;;;;;5.57;1.35;;;;;;;;;;10367084;28;20025;-58
2023/03/27 20:06:32;;;;;;;7.32;1.95;;;;;;;;;;10373642;28;20386;-60
2023/03/27 20:11:33;;;;;;;10.35;1.20;;;;;;;;;;10367772;28;20045;-56
2023/03/27 20:16:34;;;;;;;6.88;1.23;;;;;;;;;;10368285;28;20026;-52
2023/03/27 20:21:39;;;;;;;3.17;1.30;;;;;;;;;;10366726;28;20296;-54
2023/03/27 20:26:41;;;;;;;5.93;1.73;;;;;;;;;;10366553;28;20110;-58
2023/03/27 20:31:41;;;;;;;1.95;1.17;;;;;;;;;;10367612;28;20059;-60
2023/03/27 20:36:42;;;;;;;3.13;1.17;;;;;;;;;;10368603;28;20036;-58
2023/03/27 20:41:45;;;;;;;3.55;1.33;;;;;;;;;;10365048;28;20030;-59
2023/03/27 20:46:49;;;;;;;2.22;1.10;;;;;;;;;;10371825;28;20045;-58
2023/03/27 20:51:50;;;;;;;1.52;1.00;;;;;;;;;;10363834;28;20038;-57
2023/03/27 20:56:51;;;;;;;6.80;1.40;;;;;;;;;;10366641;28;20397;-56
2023/03/27 21:01:52;;;;;;;4.00;1.35;;;;;;;;;;10372300;28;20037;-58
2023/03/27 21:06:53;;;;;;;2.28;1.00;;;;;;;;;;10380752;28;20018;-58
2023/03/27 21:11:54;;;;;;;2.97;0.90;;;;;;;;;;10381029;28;20508;-57
2023/03/27 21:16:55;;;;;;;1.08;0.88;;;;;;;;;;10360200;28;20032;-58
2023/03/27 21:21:56;;;;;;;1.17;1.00;;;;;;;;;;10380190;28;20033;-58
2023/03/27 21:26:57;;;;;;;2.65;1.02;;;;;;;;;;10379358;28;20072;-58
2023/03/27 21:31:58;;;;;;;2.13;0.90;;;;;;;;;;10371482;28;20040;-58
2023/03/27 21:37:01;;;;;;;2.13;0.90;;;;;;;;;;10376054;28;20501;-59
2023/03/27 21:42:01;;;;;;;6.80;1.10;;;;;;;;;;10373641;28;20439;-59
2023/03/27 21:47:02;;;;;;;3.25;1.20;;;;;;;;;;10399218;28;20029;-59
2023/03/27 21:52:03;;;;;;;4.32;1.30;;;;;;;;;;10385779;28;20504;-58
2023/03/27 21:57:03;;;;;;;10.95;1.20;;;;;;;;;;10381031;28;20377;-59
2023/03/27 22:02:04;;;;;;;3.65;1.38;;;;;;;;;;10374577;28;20029;-59
2023/03/27 22:07:05;;;;;;;6.90;1.17;;;;;;;;;;10394730;28;20042;-59
2023/03/27 22:12:06;;;;;;;4.20;1.20;;;;;;;;;;10386948;28;20025;-59
2023/03/27 22:17:06;;;;;;;2.90;0.82;;;;;;;;;;10400796;28;20037;-60
2023/03/27 22:22:07;;;;;;;3.38;1.10;;;;;;;;;;10390633;28;20049;-60
2023/03/27 22:27:08;;;;;;;1.70;1.10;;;;;;;;;;10396719;28;20029;-59
2023/03/27 22:32:08;;;;;;;1.77;1.00;;;;;;;;;;10397385;28;20029;-59
2023/03/27 22:37:09;;;;;;;1.42;0.85;;;;;;;;;;10368055;28;20030;-60
2023/03/27 22:42:10;;;;;;;1.05;0.95;;;;;;;;;;10383845;28;20033;-60
2023/03/27 22:47:10;;;;;;;1.90;0.90;;;;;;;;;;10393258;28;20088;-59
2023/03/27 22:52:11;;;;;;;2.15;0.93;;;;;;;;;;10403871;28;20416;-58
2023/03/27 22:57:11;;;;;;;2.58;1.08;;;;;;;;;;10384548;28;20402;-58
2023/03/27 23:02:12;;;;;;;2.65;1.00;;;;;;;;;;10389646;28;20034;-58
2023/03/27 23:07:12;;;;;;;3.83;0.98;;;;;;;;;;10394501;28;20033;-56
2023/03/27 23:12:13;;;;;;;3.45;1.10;;;;;;;;;;10362841;28;20037;-58
2023/03/27 23:17:14;;;;;;;8.65;1.00;;;;;;;;;;10368765;28;20277;-58
2023/03/27 23:22:14;;;;;;;1.58;0.90;;;;;;;;;;10357064;28;20475;-58
2023/03/27 23:27:15;;;;;;;1.15;0.82;;;;;;;;;;10354323;28;20034;-52
2023/03/27 23:32:15;;;;;;;0.88;0.88;;;;;;;;;;10373033;28;20041;-52
2023/03/27 23:37:16;;;;;;;0.90;0.90;;;;;;;;;;10349894;28;20065;-51
2023/03/27 23:42:16;;;;;;;1.95;0.95;;;;;;;;;;10361912;28;20037;-51
2023/03/27 23:47:17;;;;;;;1.60;0.80;;;;;;;;;;10380162;28;20076;-52
2023/03/27 23:52:18;;;;;;;1.25;0.98;;;;;;;;;;10387188;28;20046;-54
2023/03/27 23:57:18;;;;;;;1.63;0.90;;;;;;;;;;10361229;28;20053;-48
